Time;durP1;ratioP1;P1;durP2;ratioP2;P2;SDS_P1;SDS_P2;PMS_P1;PMS_P2;Temp;Humidity;BMP_temperature;BMP_pressure;BME280_temperature;BME280_humidity;BME280_pressure;Samples;Min_cycle;Max_cycle;Signal;HPM_P1;HPM_P2
2023/05/14 00:00:02;;;;;;;8.43;7.63;;;17.00;75.80;;;;;;5101263;28;20495;-74
2023/05/14 00:02:29;;;;;;;8.90;8.00;;;17.00;75.70;;;;;;5105541;28;20521;-76
2023/05/14 00:04:58;;;;;;;7.87;7.17;;;17.00;75.80;;;;;;5104516;28;20487;-77
2023/05/14 00:07:29;;;;;;;7.40;6.90;;;17.00;75.60;;;;;;5105934;28;20462;-75
2023/05/14 00:10:00;;;;;;;7.53;6.83;;;17.00;75.90;;;;;;5104571;28;20483;-75
2023/05/14 00:12:28;;;;;;;7.50;6.87;;;16.90;75.70;;;;;;5104246;28;20496;-76
2023/05/14 00:14:55;;;;;;;7.43;6.83;;;16.90;75.60;;;;;;5102360;28;20473;-76
2023/05/14 00:17:22;;;;;;;8.07;7.47;;;16.90;75.70;;;;;;5110824;28;20462;-75
2023/05/14 00:19:49;;;;;;;7.13;6.50;;;16.90;75.90;;;;;;5102794;28;20523;-76
2023/05/14 00:22:16;;;;;;;8.20;7.40;;;16.90;76.00;;;;;;5101816;28;20776;-75
2023/05/14 00:24:43;;;;;;;7.77;7.00;;;16.90;76.20;;;;;;5099755;28;20469;-75
2023/05/14 00:27:11;;;;;;;7.80;7.17;;;16.90;76.30;;;;;;5093112;28;20461;-74
2023/05/14 00:29:38;;;;;;;7.43;6.83;;;16.90;76.30;;;;;;5103842;28;20462;-76
2023/05/14 00:32:06;;;;;;;8.50;7.37;;;16.90;76.40;;;;;;5102973;28;20466;-76
2023/05/14 00:34:33;;;;;;;8.07;7.47;;;16.90;76.60;;;;;;5103263;28;20495;-75
2023/05/14 00:37:02;;;;;;;7.70;7.00;;;16.80;77.50;;;;;;5099906;28;20530;-75
2023/05/14 00:39:28;;;;;;;7.13;6.57;;;16.80;76.90;;;;;;5099972;28;20472;-75
2023/05/14 00:41:55;;;;;;;7.23;6.53;;;16.80;77.00;;;;;;5098088;28;20491;-75
2023/05/14 00:44:24;;;;;;;7.80;7.10;;;16.80;77.10;;;;;;5100934;28;20856;-76
2023/05/14 00:46:51;;;;;;;8.40;7.60;;;16.80;77.30;;;;;;5097148;28;20453;-75
2023/05/14 00:49:18;;;;;;;7.77;7.23;;;16.80;77.40;;;;;;5098021;28;20773;-76
2023/05/14 00:51:46;;;;;;;7.47;6.87;;;16.70;77.60;;;;;;5102176;28;20525;-76
2023/05/14 00:54:14;;;;;;;8.17;7.37;;;16.70;78.00;;;;;;5102809;28;20485;-75
2023/05/14 00:56:41;;;;;;;7.83;7.13;;;16.70;78.00;;;;;;5099305;28;20943;-75
2023/05/14 00:59:08;;;;;;;7.17;6.57;;;16.70;78.00;;;;;;5098038;28;20499;-76
2023/05/14 01:01:37;;;;;;;7.40;6.70;;;16.70;78.00;;;;;;5095826;28;20967;-75
2023/05/14 01:04:04;;;;;;;8.03;7.23;;;16.60;77.90;;;;;;5094939;28;20538;-75
2023/05/14 01:06:40;;;;;;;6.73;6.13;;;16.70;78.00;;;;;;5093844;28;20465;-75
2023/05/14 01:09:13;;;;;;;7.17;6.40;;;16.60;77.90;;;;;;5096279;28;20465;-75
2023/05/14 01:11:48;;;;;;;7.90;7.10;;;16.60;78.30;;;;;;5094961;28;20465;-75
2023/05/14 01:14:22;;;;;;;9.83;8.87;;;16.60;78.40;;;;;;5094013;28;20465;-76
2023/05/14 01:16:56;;;;;;;8.27;7.47;;;16.60;78.50;;;;;;5093455;28;20465;-76
2023/05/14 01:19:36;;;;;;;7.37;6.47;;;16.50;78.60;;;;;;5097528;28;20469;-75
2023/05/14 01:22:04;;;;;;;8.33;7.63;;;16.50;78.40;;;;;;5097369;28;20494;-74
2023/05/14 01:24:32;;;;;;;7.93;6.60;;;16.50;78.50;;;;;;5100708;28;20457;-75
2023/05/14 01:27:06;;;;;;;8.17;7.57;;;16.50;78.60;;;;;;5101995;28;20458;-75
2023/05/14 01:29:35;;;;;;;6.83;6.33;;;16.50;78.70;;;;;;5100737;28;20492;-77
2023/05/14 01:32:07;;;;;;;7.00;6.33;;;16.50;78.70;;;;;;5100662;28;20441;-74
2023/05/14 01:34:36;;;;;;;8.83;8.03;;;16.50;78.90;;;;;;5101602;28;20461;-76
2023/05/14 01:37:06;;;;;;;8.00;7.30;;;16.40;78.90;;;;;;5101592;28;20513;-77
2023/05/14 01:39:36;;;;;;;7.53;6.90;;;16.40;79.00;;;;;;5100410;28;20548;-76
2023/05/14 01:42:05;;;;;;;10.10;7.87;;;16.40;78.90;;;;;;5099391;28;20467;-76
2023/05/14 01:44:33;;;;;;;7.93;7.33;;;16.40;79.70;;;;;;5100766;28;20469;-76
2023/05/14 01:47:03;;;;;;;8.77;7.97;;;16.30;78.90;;;;;;5097932;28;20472;-77
2023/05/14 01:49:36;;;;;;;8.17;7.37;;;16.30;79.10;;;;;;5102994;28;20462;-76
2023/05/14 01:52:08;;;;;;;6.90;6.20;;;16.30;79.40;;;;;;5103788;28;20457;-76
2023/05/14 01:54:35;;;;;;;8.80;8.00;;;16.30;79.30;;;;;;5104313;28;20457;-75
2023/05/14 01:57:02;;;;;;;7.33;6.73;;;16.30;79.10;;;;;;5098781;28;20495;-76
2023/05/14 01:59:29;;;;;;;7.30;6.57;;;16.30;79.10;;;;;;5101399;28;20542;-75
2023/05/14 02:01:56;;;;;;;6.87;6.27;;;16.30;79.00;;;;;;5102750;28;20472;-76
2023/05/14 02:04:23;;;;;;;6.70;6.10;;;16.30;78.90;;;;;;5104325;28;20457;-76
2023/05/14 02:06:50;;;;;;;7.80;7.20;;;16.30;78.80;;;;;;5106898;28;20468;-75
2023/05/14 02:09:18;;;;;;;7.50;6.80;;;16.30;78.60;;;;;;5106202;28;20484;-76
2023/05/14 02:11:45;;;;;;;7.90;6.80;;;16.20;78.50;;;;;;5104904;28;20527;-76
2023/05/14 02:14:14;;;;;;;6.97;6.43;;;16.20;78.10;;;;;;5106838;28;20461;-74
2023/05/14 02:16:41;;;;;;;7.57;6.90;;;16.20;77.70;;;;;;5108881;28;20458;-76
2023/05/14 02:19:07;;;;;;;7.53;6.80;;;16.20;77.70;;;;;;5109940;28;20461;-75
2023/05/14 02:21:55;;;;;;;7.70;6.97;;;16.20;78.00;;;;;;5109679;28;20473;-75
2023/05/14 02:24:39;;;;;;;7.40;6.70;;;16.20;77.60;;;;;;5111385;28;20454;-74
2023/05/14 02:27:06;;;;;;;8.40;7.70;;;16.20;77.30;;;;;;5105698;28;20451;-75
2023/05/14 02:29:33;;;;;;;7.30;6.70;;;16.20;77.30;;;;;;5091789;28;20446;-74
2023/05/14 02:32:00;;;;;;;7.37;6.77;;;16.20;77.40;;;;;;5088330;28;20473;-74
2023/05/14 02:34:27;;;;;;;7.30;6.70;;;16.20;77.30;;;;;;5107599;28;20465;-75
2023/05/14 02:36:54;;;;;;;7.60;7.00;;;16.20;77.00;;;;;;5111998;28;20494;-74
2023/05/14 02:39:21;;;;;;;7.87;7.17;;;16.20;76.80;;;;;;5111682;28;20469;-75
2023/05/14 02:41:49;;;;;;;7.80;6.57;;;16.20;76.90;;;;;;5109911;28;20466;-75
2023/05/14 02:44:16;;;;;;;6.90;6.40;;;16.20;77.10;;;;;;5099709;28;20465;-75
2023/05/14 02:46:43;;;;;;;6.77;6.23;;;16.20;77.00;;;;;;5093375;28;20500;-75
2023/05/14 02:49:10;;;;;;;7.07;6.50;;;16.20;77.10;;;;;;5116162;28;20573;-74
2023/05/14 02:51:37;;;;;;;7.70;7.00;;;16.20;77.10;;;;;;5105225;28;20523;-73
2023/05/14 02:54:04;;;;;;;5.67;5.17;;;16.20;77.00;;;;;;5102666;28;20462;-74
2023/05/14 02:56:32;;;;;;;6.50;5.90;;;16.20;77.00;;;;;;5098101;28;20854;-74
2023/05/14 02:59:00;;;;;;;6.30;5.70;;;16.20;76.90;;;;;;5098543;28;20622;-76
2023/05/14 03:01:27;;;;;;;7.47;6.83;;;16.20;76.70;;;;;;5098332;28;20519;-75
2023/05/14 03:03:54;;;;;;;6.93;6.27;;;16.20;76.60;;;;;;5095443;28;20462;-74
2023/05/14 03:06:21;;;;;;;6.90;6.40;;;16.20;76.70;;;;;;5095477;28;20477;-74
2023/05/14 03:08:48;;;;;;;5.87;5.37;;;16.20;76.70;;;;;;5096056;28;20987;-75
2023/05/14 03:11:20;;;;;;;6.50;6.03;;;16.20;76.50;;;;;;5084518;28;20523;-75
2023/05/14 03:13:47;;;;;;;7.10;6.47;;;16.30;76.40;;;;;;5094178;28;20466;-76
2023/05/14 03:16:15;;;;;;;6.60;6.07;;;16.30;76.40;;;;;;5094702;28;20524;-75
2023/05/14 03:18:42;;;;;;;7.20;6.53;;;16.30;76.10;;;;;;5094560;28;20907;-75
2023/05/14 03:21:09;;;;;;;6.20;5.60;;;16.30;76.00;;;;;;5094709;28;20531;-75
2023/05/14 03:23:36;;;;;;;6.40;5.90;;;16.30;76.00;;;;;;5093790;28;20586;-74
2023/05/14 03:26:03;;;;;;;6.60;6.10;;;16.30;76.00;;;;;;5094528;28;20473;-74
2023/05/14 03:28:30;;;;;;;7.53;6.83;;;16.30;75.90;;;;;;5075552;28;20795;-76
2023/05/14 03:30:58;;;;;;;6.90;6.20;;;16.30;75.80;;;;;;5074113;28;20473;-75
2023/05/14 03:33:26;;;;;;;7.13;5.67;;;16.30;75.80;;;;;;5074386;28;20855;-74
2023/05/14 03:36:08;;;;;;;6.87;6.27;;;16.30;75.70;;;;;;5072802;28;20544;-75
2023/05/14 03:38:35;;;;;;;6.33;5.80;;;16.30;75.60;;;;;;5073614;28;20524;-76
2023/05/14 03:41:02;;;;;;;6.47;5.87;;;16.30;75.30;;;;;;5074011;28;20466;-74
2023/05/14 03:43:29;;;;;;;6.40;5.90;;;16.30;75.20;;;;;;5073598;28;20466;-74
2023/05/14 03:45:56;;;;;;;5.40;5.00;;;16.30;75.20;;;;;;5073617;28;20472;-74
2023/05/14 03:48:23;;;;;;;8.60;6.17;;;16.30;75.00;;;;;;5073467;28;20481;-75
2023/05/14 03:50:52;;;;;;;9.13;6.73;;;16.40;75.10;;;;;;5073290;28;20497;-74
2023/05/14 03:53:18;;;;;;;7.20;6.60;;;16.40;75.10;;;;;;5073698;28;20478;-75
2023/05/14 03:55:45;;;;;;;7.53;6.80;;;16.40;75.10;;;;;;5072691;28;20916;-75
2023/05/14 03:58:13;;;;;;;7.00;6.30;;;16.40;75.00;;;;;;5073581;28;20497;-75
2023/05/14 04:00:41;;;;;;;7.03;6.33;;;16.40;74.90;;;;;;5071651;28;20471;-75
2023/05/14 04:03:08;;;;;;;7.30;6.70;;;16.40;74.70;;;;;;5073472;28;20553;-75
2023/05/14 04:05:35;;;;;;;7.30;6.60;;;16.40;74.60;;;;;;5073600;28;20497;-74
2023/05/14 04:08:03;;;;;;;7.73;6.30;;;16.30;74.30;;;;;;5072792;28;20505;-74
2023/05/14 04:10:32;;;;;;;7.30;6.60;;;16.40;74.20;;;;;;5073042;28;20491;-74
2023/05/14 04:12:59;;;;;;;6.93;6.30;;;16.40;74.10;;;;;;5072069;28;20458;-76
2023/05/14 04:15:25;;;;;;;7.53;6.50;;;16.40;74.20;;;;;;5073063;28;20505;-76
2023/05/14 04:17:52;;;;;;;7.60;6.00;;;16.40;74.00;;;;;;5072735;28;20486;-75
2023/05/14 04:20:19;;;;;;;8.60;6.83;;;16.40;74.00;;;;;;5072969;28;21009;-75
2023/05/14 04:22:46;;;;;;;6.23;5.73;;;16.50;73.60;;;;;;5072781;28;20749;-75
2023/05/14 04:25:14;;;;;;;9.23;6.93;;;16.50;73.40;;;;;;5073391;28;20474;-75
2023/05/14 04:27:41;;;;;;;7.33;6.07;;;16.50;73.00;;;;;;5072851;28;20462;-75
2023/05/14 04:30:10;;;;;;;6.70;6.10;;;16.50;73.10;;;;;;5072802;28;20500;-75
2023/05/14 04:32:37;;;;;;;6.40;5.80;;;16.50;73.30;;;;;;5073155;28;20470;-76
2023/05/14 04:35:05;;;;;;;5.67;5.20;;;16.50;73.40;;;;;;5072892;28;20462;-76
2023/05/14 04:37:32;;;;;;;6.60;6.00;;;16.50;73.20;;;;;;5072595;28;20524;-74
2023/05/14 04:39:59;;;;;;;6.10;5.50;;;16.50;73.30;;;;;;5073018;28;20477;-75
2023/05/14 04:42:28;;;;;;;9.50;6.87;;;16.50;73.50;;;;;;5073115;28;20827;-76
2023/05/14 04:44:55;;;;;;;6.90;6.20;;;16.50;73.60;;;;;;5072532;28;20482;-74
2023/05/14 04:47:23;;;;;;;6.10;5.60;;;16.50;73.50;;;;;;5072814;28;20955;-74
2023/05/14 04:49:50;;;;;;;5.83;5.10;;;16.50;73.30;;;;;;5071795;28;20470;-76
2023/05/14 04:52:17;;;;;;;5.73;5.10;;;16.60;73.40;;;;;;5072834;28;20482;-74
2023/05/14 04:54:47;;;;;;;8.03;5.70;;;16.60;73.40;;;;;;5071395;28;20482;-75
2023/05/14 04:57:14;;;;;;;5.63;5.17;;;16.60;73.30;;;;;;5075937;28;20457;-76
2023/05/14 04:59:43;;;;;;;7.50;6.80;;;16.60;73.40;;;;;;5076850;28;20477;-75
2023/05/14 05:02:10;;;;;;;6.27;5.77;;;16.60;73.40;;;;;;5076408;28;20519;-75
2023/05/14 05:04:37;;;;;;;6.50;5.90;;;16.60;73.50;;;;;;5077270;28;20974;-75
2023/05/14 05:07:10;;;;;;;6.53;5.93;;;16.60;73.50;;;;;;5076144;28;20473;-75
2023/05/14 05:09:36;;;;;;;6.43;5.77;;;16.70;73.60;;;;;;5076803;28;20470;-75
2023/05/14 05:12:04;;;;;;;7.07;6.50;;;16.70;73.60;;;;;;5076535;28;20539;-76
2023/05/14 05:14:30;;;;;;;6.10;5.70;;;16.70;73.50;;;;;;5076706;28;20495;-76
2023/05/14 05:16:59;;;;;;;5.77;5.27;;;16.80;73.60;;;;;;5076043;28;20864;-75
2023/05/14 05:19:26;;;;;;;7.53;4.57;;;16.90;73.80;;;;;;5076342;28;20497;-75
2023/05/14 05:21:53;;;;;;;6.00;5.10;;;16.90;74.10;;;;;;5076202;28;20465;-75
2023/05/14 05:24:20;;;;;;;5.30;4.90;;;16.90;74.10;;;;;;5076782;28;20477;-75
2023/05/14 05:26:47;;;;;;;5.63;5.03;;;17.00;74.70;;;;;;5076479;28;20466;-75
2023/05/14 05:29:14;;;;;;;7.10;6.40;;;17.00;74.90;;;;;;5075850;28;20485;-75
2023/05/14 05:31:43;;;;;;;6.93;6.20;;;17.10;73.30;;;;;;5075983;28;20458;-76
2023/05/14 05:34:11;;;;;;;6.53;5.93;;;17.10;72.60;;;;;;5076051;28;20466;-76
2023/05/14 05:36:38;;;;;;;6.53;5.93;;;17.10;70.00;;;;;;5076259;28;20547;-75
2023/05/14 05:39:05;;;;;;;8.63;6.33;;;17.20;68.60;;;;;;5075536;28;20859;-76
2023/05/14 05:41:42;;;;;;;6.40;5.80;;;17.30;67.30;;;;;;5076283;28;20805;-75
2023/05/14 05:44:09;;;;;;;5.87;5.27;;;17.40;67.30;;;;;;5075440;28;20474;-75
2023/05/14 05:46:36;;;;;;;8.43;6.03;;;17.50;67.30;;;;;;5083468;28;20471;-75
2023/05/14 05:49:03;;;;;;;5.67;4.53;;;17.60;66.60;;;;;;5081876;28;20474;-75
2023/05/14 05:51:33;;;;;;;5.43;4.93;;;17.70;66.70;;;;;;5070128;28;20466;-75
2023/05/14 05:54:01;;;;;;;5.87;5.30;;;17.70;66.70;;;;;;5079188;28;20462;-75
2023/05/14 05:56:27;;;;;;;5.20;4.50;;;17.80;67.60;;;;;;5079508;28;20462;-74
2023/05/14 05:58:54;;;;;;;4.80;4.40;;;17.90;68.50;;;;;;5078716;28;20473;-74
2023/05/14 06:01:22;;;;;;;5.73;5.17;;;17.90;68.20;;;;;;5077585;28;20466;-76
2023/05/14 06:03:49;;;;;;;7.50;5.80;;;17.90;66.30;;;;;;5076477;28;20474;-77
2023/05/14 06:06:16;;;;;;;4.93;4.47;;;18.00;65.40;;;;;;5074930;28;20789;-75
2023/05/14 06:08:46;;;;;;;5.10;4.70;;;18.10;65.30;;;;;;5075718;28;20549;-75
2023/05/14 06:11:17;;;;;;;5.03;4.50;;;18.20;66.20;;;;;;5075190;28;20523;-74
2023/05/14 06:13:43;;;;;;;5.90;5.37;;;18.30;67.00;;;;;;5076128;28;20500;-75
2023/05/14 06:16:10;;;;;;;4.80;4.40;;;18.30;65.00;;;;;;5075535;28;20505;-77
2023/05/14 06:18:37;;;;;;;4.97;4.57;;;18.40;65.30;;;;;;5075239;28;20485;-75
2023/05/14 06:21:04;;;;;;;6.23;5.17;;;18.50;64.80;;;;;;5074539;28;20474;-76
2023/05/14 06:23:40;;;;;;;9.03;7.23;;;18.60;64.50;;;;;;5075558;28;20536;-76
2023/05/14 06:26:08;;;;;;;4.77;4.30;;;18.70;64.30;;;;;;5074859;28;20500;-76
2023/05/14 06:28:35;;;;;;;5.17;4.60;;;18.80;65.50;;;;;;5075148;28;20523;-76
2023/05/14 06:31:02;;;;;;;6.67;4.57;;;18.80;65.40;;;;;;5074754;28;20466;-76
2023/05/14 06:33:30;;;;;;;5.30;4.80;;;18.90;66.30;;;;;;5075278;28;20851;-75
2023/05/14 06:35:57;;;;;;;4.57;4.17;;;19.00;66.40;;;;;;5072786;28;20473;-75
2023/05/14 06:38:28;;;;;;;6.47;4.97;;;19.00;65.90;;;;;;5067431;28;20809;-75
2023/05/14 06:40:55;;;;;;;5.07;4.47;;;19.00;64.30;;;;;;5087250;28;20466;-75
2023/05/14 06:43:24;;;;;;;4.50;4.20;;;19.00;63.50;;;;;;5074567;28;20471;-75
2023/05/14 06:45:55;;;;;;;5.00;4.50;;;19.10;63.80;;;;;;5075054;28;20493;-75
2023/05/14 06:48:22;;;;;;;6.43;5.83;;;19.10;63.30;;;;;;5074337;28;20467;-76
2023/05/14 06:50:49;;;;;;;5.10;4.70;;;19.00;61.70;;;;;;5076997;28;20606;-76
2023/05/14 06:53:16;;;;;;;5.80;5.30;;;18.90;61.90;;;;;;5076292;28;20554;-76
2023/05/14 06:55:43;;;;;;;4.73;4.33;;;18.90;61.80;;;;;;5074366;28;20478;-75
2023/05/14 06:58:11;;;;;;;4.63;4.20;;;19.00;62.10;;;;;;5074404;28;20466;-75
2023/05/14 07:00:40;;;;;;;6.70;4.23;;;19.00;61.90;;;;;;5074012;28;20463;-76
2023/05/14 07:03:07;;;;;;;5.23;4.73;;;19.00;62.20;;;;;;5074515;28;20787;-75
2023/05/14 07:05:34;;;;;;;5.43;4.80;;;19.00;62.30;;;;;;5073217;28;20505;-75
2023/05/14 07:08:01;;;;;;;5.73;4.67;;;19.10;61.90;;;;;;5074064;28;20667;-75
2023/05/14 07:10:29;;;;;;;4.70;4.20;;;19.10;61.80;;;;;;5073634;28;20492;-76
2023/05/14 07:12:56;;;;;;;7.43;4.50;;;19.10;61.70;;;;;;5074183;28;20473;-76
2023/05/14 07:15:34;;;;;;;5.20;4.40;;;19.20;62.30;;;;;;5073748;28;20569;-75
2023/05/14 07:18:06;;;;;;;4.50;4.10;;;19.10;62.10;;;;;;5073438;28;20504;-76
2023/05/14 07:20:33;;;;;;;5.47;4.97;;;19.20;62.20;;;;;;5073628;28;20462;-76
2023/05/14 07:23:00;;;;;;;6.30;4.63;;;19.30;62.10;;;;;;5074347;28;20535;-76
2023/05/14 07:25:27;;;;;;;5.80;5.30;;;19.30;62.00;;;;;;5073050;28;20967;-75
2023/05/14 07:27:54;;;;;;;9.53;4.60;;;19.30;61.80;;;;;;5074194;28;20473;-76
2023/05/14 07:30:21;;;;;;;5.83;5.10;;;19.30;61.80;;;;;;5073051;28;20469;-75
2023/05/14 07:32:48;;;;;;;4.50;4.10;;;19.30;61.90;;;;;;5074235;28;20470;-75
2023/05/14 07:35:19;;;;;;;5.90;5.40;;;19.30;61.50;;;;;;5073725;28;20789;-75
2023/05/14 07:37:46;;;;;;;4.60;4.20;;;19.20;61.80;;;;;;5072955;28;20470;-75
2023/05/14 07:40:13;;;;;;;5.07;3.80;;;19.30;61.90;;;;;;5073652;28;20547;-75
2023/05/14 07:42:40;;;;;;;5.27;3.67;;;19.40;62.00;;;;;;5073839;28;20490;-76
2023/05/14 07:45:09;;;;;;;4.30;3.90;;;19.30;61.60;;;;;;5072836;28;20516;-76
2023/05/14 07:47:36;;;;;;;6.30;4.60;;;19.40;61.80;;;;;;5073827;28;20466;-75
2023/05/14 07:50:04;;;;;;;4.87;4.30;;;19.60;62.20;;;;;;5073955;28;20477;-75
2023/05/14 07:52:32;;;;;;;4.80;4.37;;;19.70;62.60;;;;;;5073021;28;20470;-76
2023/05/14 07:55:00;;;;;;;5.50;4.57;;;19.80;62.40;;;;;;5074008;28;20951;-76
2023/05/14 07:57:27;;;;;;;6.00;5.40;;;19.90;61.40;;;;;;5073038;28;20546;-75
2023/05/14 07:59:54;;;;;;;9.43;8.60;;;20.00;61.10;;;;;;5073950;28;20493;-76
2023/05/14 08:02:21;;;;;;;7.90;7.20;;;20.10;61.00;;;;;;5073627;28;20554;-75
2023/05/14 08:04:48;;;;;;;5.60;4.90;;;20.20;60.60;;;;;;5073257;28;20462;-76
2023/05/14 08:07:15;;;;;;;4.63;4.27;;;20.30;59.70;;;;;;5074192;28;21002;-76
2023/05/14 08:09:43;;;;;;;5.67;5.17;;;20.40;59.80;;;;;;5073136;28;20470;-75
2023/05/14 08:12:10;;;;;;;4.70;4.30;;;20.50;59.60;;;;;;5073643;28;20959;-76
2023/05/14 08:14:37;;;;;;;6.87;4.60;;;20.50;59.20;;;;;;5072790;28;20549;-76
2023/05/14 08:17:05;;;;;;;5.80;5.40;;;20.60;59.10;;;;;;5072988;28;20470;-75
2023/05/14 08:19:32;;;;;;;4.70;4.33;;;20.70;58.90;;;;;;5072981;28;20869;-74
2023/05/14 08:21:59;;;;;;;5.73;5.27;;;20.80;59.10;;;;;;5073519;28;20462;-76
2023/05/14 08:24:26;;;;;;;4.67;4.27;;;20.90;58.70;;;;;;5073799;28;20872;-75
2023/05/14 08:26:55;;;;;;;5.40;4.43;;;20.90;58.70;;;;;;5073395;28;20461;-75
2023/05/14 08:29:22;;;;;;;5.30;4.83;;;21.00;58.70;;;;;;5073932;28;20485;-76
2023/05/14 08:31:50;;;;;;;4.70;4.17;;;21.00;58.50;;;;;;5072847;28;20507;-77
2023/05/14 08:34:17;;;;;;;7.20;4.20;;;21.10;58.60;;;;;;5073360;28;20466;-76
2023/05/14 08:36:44;;;;;;;4.63;4.23;;;21.20;58.50;;;;;;5073038;28;20868;-76
2023/05/14 08:39:11;;;;;;;4.67;4.27;;;21.10;58.30;;;;;;5073407;28;21041;-74
2023/05/14 08:41:39;;;;;;;5.60;4.50;;;21.20;58.40;;;;;;5072414;28;20477;-77
2023/05/14 08:44:13;;;;;;;4.23;3.83;;;21.20;58.20;;;;;;5073399;28;20541;-75
2023/05/14 08:46:40;;;;;;;5.00;4.20;;;21.30;58.10;;;;;;5072980;28;20484;-74
2023/05/14 08:49:16;;;;;;;4.53;3.93;;;21.40;57.60;;;;;;5073411;28;20466;-76
2023/05/14 08:51:45;;;;;;;7.23;4.67;;;21.40;57.70;;;;;;5072808;28;20462;-75
2023/05/14 08:54:15;;;;;;;4.70;4.30;;;21.50;57.70;;;;;;5073197;28;20477;-76
2023/05/14 08:56:44;;;;;;;4.50;4.00;;;21.60;57.70;;;;;;5072392;28;20466;-74
2023/05/14 08:59:13;;;;;;;4.83;4.40;;;21.70;57.70;;;;;;5072410;28;20492;-75
2023/05/14 09:01:47;;;;;;;6.20;4.80;;;21.70;57.40;;;;;;5071758;28;20569;-76
2023/05/14 09:04:16;;;;;;;3.97;3.60;;;21.70;57.10;;;;;;5072817;28;20527;-76
2023/05/14 09:06:44;;;;;;;3.43;3.20;;;21.70;56.90;;;;;;5071886;28;20532;-75
2023/05/14 09:09:11;;;;;;;6.97;3.70;;;21.80;57.10;;;;;;5072902;28;20843;-74
2023/05/14 09:11:41;;;;;;;3.50;3.30;;;21.80;56.80;;;;;;5072065;28;20490;-75
2023/05/14 09:14:09;;;;;;;4.00;3.70;;;21.90;56.80;;;;;;5073295;28;20462;-75
2023/05/14 09:16:38;;;;;;;4.80;4.40;;;21.90;56.50;;;;;;5071947;28;20866;-75
2023/05/14 09:19:06;;;;;;;4.07;3.67;;;21.90;56.50;;;;;;5072442;28;20462;-74
2023/05/14 09:21:33;;;;;;;4.30;3.93;;;22.00;56.60;;;;;;5072698;28;20473;-75
2023/05/14 09:24:01;;;;;;;4.77;4.37;;;22.00;56.20;;;;;;5072797;28;20470;-74
2023/05/14 09:26:34;;;;;;;4.47;3.60;;;22.00;55.80;;;;;;5072080;28;20481;-76
2023/05/14 09:29:02;;;;;;;4.57;3.93;;;22.00;55.80;;;;;;5072384;28;20477;-75
2023/05/14 09:31:33;;;;;;;4.27;3.37;;;22.10;55.70;;;;;;5072820;28;20462;-74
2023/05/14 09:34:05;;;;;;;4.50;3.37;;;22.10;54.90;;;;;;5071989;28;20968;-74
2023/05/14 09:36:34;;;;;;;4.43;3.73;;;22.10;54.70;;;;;;5071429;28;20933;-76
2023/05/14 09:39:04;;;;;;;4.03;3.67;;;22.20;54.40;;;;;;5072351;28;20455;-76
2023/05/14 09:41:31;;;;;;;3.87;3.57;;;22.20;53.90;;;;;;5073087;28;20531;-76
2023/05/14 09:44:00;;;;;;;4.57;3.67;;;22.20;54.20;;;;;;5076195;28;20467;-75
2023/05/14 09:46:30;;;;;;;6.60;4.13;;;22.30;54.00;;;;;;5075987;28;20473;-75
2023/05/14 09:48:57;;;;;;;4.03;3.73;;;22.30;53.60;;;;;;5066932;28;20474;-77
2023/05/14 09:51:26;;;;;;;4.03;3.83;;;22.30;53.80;;;;;;5078284;28;20462;-75
2023/05/14 09:53:55;;;;;;;4.00;3.70;;;22.30;53.90;;;;;;5075468;28;20466;-76
2023/05/14 09:56:22;;;;;;;4.40;3.90;;;22.30;53.80;;;;;;5075780;28;20842;-77
2023/05/14 09:58:49;;;;;;;6.13;3.93;;;22.40;54.60;;;;;;5074749;28;20470;-76
2023/05/14 10:01:19;;;;;;;4.53;3.20;;;22.30;53.80;;;;;;5076088;28;20569;-76
2023/05/14 10:03:46;;;;;;;3.93;3.63;;;22.30;53.70;;;;;;5075204;28;20559;-76
2023/05/14 10:06:16;;;;;;;3.60;3.40;;;22.20;53.10;;;;;;5074751;28;20497;-76
2023/05/14 10:08:54;;;;;;;4.57;4.17;;;22.20;53.40;;;;;;5075336;28;20545;-75
2023/05/14 10:11:25;;;;;;;4.33;3.33;;;22.20;53.50;;;;;;5075674;28;20944;-76
2023/05/14 10:13:58;;;;;;;4.10;3.53;;;22.30;54.00;;;;;;5075339;28;20485;-76
2023/05/14 10:16:29;;;;;;;4.20;3.53;;;22.30;53.60;;;;;;5074570;28;20858;-75
2023/05/14 10:19:04;;;;;;;4.97;3.70;;;22.20;53.90;;;;;;5075083;28;20541;-75
2023/05/14 10:21:34;;;;;;;4.20;3.73;;;22.20;54.00;;;;;;5075905;28;21306;-76
2023/05/14 10:24:04;;;;;;;4.00;3.60;;;22.20;54.30;;;;;;5075454;28;20462;-76
2023/05/14 10:26:31;;;;;;;4.20;3.90;;;22.20;54.80;;;;;;5074592;28;20466;-74
2023/05/14 10:29:05;;;;;;;4.57;4.17;;;22.20;55.00;;;;;;5075630;28;20454;-75
2023/05/14 10:31:49;;;;;;;4.10;3.60;;;22.20;55.00;;;;;;5073177;28;20458;-74
2023/05/14 10:34:32;;;;;;;7.63;4.20;;;22.20;54.90;;;;;;5075030;28;20466;-75
2023/05/14 10:37:01;;;;;;;4.17;3.73;;;22.20;54.60;;;;;;5077558;28;20494;-75
2023/05/14 10:39:43;;;;;;;3.70;3.40;;;22.20;54.50;;;;;;5075252;28;20462;-76
2023/05/14 10:42:12;;;;;;;4.60;3.47;;;22.10;54.40;;;;;;5075273;28;20478;-76
2023/05/14 10:44:47;;;;;;;4.63;4.13;;;22.10;54.60;;;;;;5075670;28;20462;-76
2023/05/14 10:47:15;;;;;;;6.23;4.07;;;22.10;54.70;;;;;;5073669;28;20466;-76
2023/05/14 10:49:43;;;;;;;4.20;3.90;;;22.00;55.00;;;;;;5074832;28;20557;-75
2023/05/14 10:52:11;;;;;;;6.00;4.17;;;22.00;54.40;;;;;;5075076;28;20548;-75
2023/05/14 10:54:38;;;;;;;6.67;4.30;;;21.90;54.10;;;;;;5074448;28;20863;-75
2023/05/14 10:57:15;;;;;;;5.50;3.80;;;21.90;54.20;;;;;;5074074;28;20458;-74
2023/05/14 10:59:43;;;;;;;5.93;4.23;;;21.90;53.90;;;;;;5073246;28;20462;-75
2023/05/14 11:02:21;;;;;;;4.73;4.33;;;21.80;54.10;;;;;;5074831;28;20806;-75
2023/05/14 11:05:01;;;;;;;4.90;4.40;;;21.80;53.90;;;;;;5074127;28;20500;-75
2023/05/14 11:07:30;;;;;;;7.73;4.00;;;21.80;53.50;;;;;;5073181;28;20474;-75
2023/05/14 11:10:02;;;;;;;6.63;4.10;;;21.70;53.50;;;;;;5074396;28;20470;-76
2023/05/14 11:12:31;;;;;;;6.30;4.00;;;21.60;53.90;;;;;;5073783;28;20558;-78
2023/05/14 11:14:59;;;;;;;4.23;3.70;;;21.60;53.90;;;;;;5073908;28;20517;-75
2023/05/14 11:17:26;;;;;;;4.63;4.30;;;21.50;54.20;;;;;;5073517;28;20853;-75
2023/05/14 11:19:54;;;;;;;6.03;4.03;;;21.50;54.10;;;;;;5073686;28;20469;-75
2023/05/14 11:22:21;;;;;;;5.40;4.80;;;21.50;54.40;;;;;;5074201;28;20524;-77
2023/05/14 11:24:49;;;;;;;4.73;4.33;;;21.40;54.00;;;;;;5072426;28;20482;-75
2023/05/14 11:27:17;;;;;;;7.87;5.27;;;21.40;54.10;;;;;;5074225;28;20514;-75
2023/05/14 11:29:47;;;;;;;4.73;4.27;;;21.40;54.10;;;;;;5073542;28;20462;-74
2023/05/14 11:32:16;;;;;;;5.90;4.90;;;21.30;54.20;;;;;;5074202;28;20782;-76
2023/05/14 11:34:44;;;;;;;8.90;4.57;;;21.30;54.40;;;;;;5064751;28;20467;-75
2023/05/14 11:37:14;;;;;;;5.90;4.67;;;21.30;54.40;;;;;;5087601;28;20501;-74
2023/05/14 11:39:47;;;;;;;7.57;4.63;;;21.30;54.70;;;;;;5072844;28;20478;-75
2023/05/14 11:42:17;;;;;;;8.83;5.07;;;21.30;54.60;;;;;;5073984;28;20519;-75
2023/05/14 11:44:49;;;;;;;5.13;4.60;;;21.40;54.80;;;;;;5072907;28;20466;-74
2023/05/14 11:47:17;;;;;;;5.87;4.90;;;21.40;54.80;;;;;;5073381;28;20470;-75
2023/05/14 11:49:44;;;;;;;5.23;4.80;;;21.50;55.00;;;;;;5073057;28;20474;-75
2023/05/14 11:52:14;;;;;;;4.70;4.40;;;21.50;55.00;;;;;;5073752;28;20570;-75
2023/05/14 11:54:44;;;;;;;6.93;4.10;;;21.50;55.00;;;;;;5072721;28;20844;-74
2023/05/14 11:57:12;;;;;;;4.47;4.00;;;21.50;55.20;;;;;;5073382;28;20462;-75
2023/05/14 11:59:40;;;;;;;5.33;3.93;;;21.50;55.10;;;;;;5072204;28;20466;-76
2023/05/14 12:02:13;;;;;;;6.07;4.30;;;21.50;55.00;;;;;;5073166;28;20466;-75
2023/05/14 12:04:41;;;;;;;4.37;3.97;;;21.50;55.30;;;;;;5071772;28;20478;-76
2023/05/14 12:07:10;;;;;;;4.40;4.00;;;21.50;55.30;;;;;;5073225;28;20940;-74
2023/05/14 12:09:39;;;;;;;5.20;4.40;;;21.60;55.40;;;;;;5073017;28;20474;-75
2023/05/14 12:12:12;;;;;;;6.00;3.90;;;21.60;55.50;;;;;;5072980;28;20549;-74
2023/05/14 12:14:41;;;;;;;5.73;5.10;;;21.60;55.10;;;;;;5072683;28;20873;-76
2023/05/14 12:17:18;;;;;;;4.47;4.17;;;21.60;55.30;;;;;;5073337;28;20470;-74
2023/05/14 12:19:48;;;;;;;4.67;4.00;;;21.60;55.30;;;;;;5072682;28;20501;-76
2023/05/14 12:22:17;;;;;;;4.23;3.93;;;21.60;55.00;;;;;;5073217;28;20520;-76
2023/05/14 12:24:53;;;;;;;5.70;4.73;;;21.60;55.30;;;;;;5072766;28;20506;-76
2023/05/14 12:27:22;;;;;;;4.70;4.27;;;21.60;55.60;;;;;;5072691;28;20481;-74
2023/05/14 12:29:52;;;;;;;4.77;4.37;;;21.60;55.70;;;;;;5072352;28;20496;-75
2023/05/14 12:32:20;;;;;;;4.27;3.87;;;21.60;55.70;;;;;;5072787;28;20470;-75
2023/05/14 12:34:48;;;;;;;4.70;4.30;;;21.70;55.80;;;;;;5072166;28;20512;-75
2023/05/14 12:37:17;;;;;;;5.63;4.73;;;21.70;55.90;;;;;;5071772;28;20473;-74
2023/05/14 12:39:45;;;;;;;4.67;4.13;;;21.80;56.00;;;;;;5072292;28;20494;-76
2023/05/14 12:42:12;;;;;;;6.60;5.03;;;21.90;56.20;;;;;;5072576;28;20474;-76
2023/05/14 12:44:39;;;;;;;4.20;3.80;;;21.90;56.10;;;;;;5072407;28;20478;-76
2023/05/14 12:47:06;;;;;;;4.63;4.17;;;22.00;56.00;;;;;;5064673;28;20470;-75
2023/05/14 12:49:35;;;;;;;5.20;4.77;;;22.10;55.60;;;;;;5074176;28;20971;-75
2023/05/14 12:52:18;;;;;;;6.13;4.80;;;22.10;55.40;;;;;;5071706;28;20473;-75
2023/05/14 12:54:45;;;;;;;4.33;4.00;;;22.20;55.20;;;;;;5072010;28;20829;-77